Terminal Aerodrome Forecast
Issued by NWS Wichita, KS

Home | Current Version | Previous Version | Text Only | Print | Product List | Glossary On
Versions: 1 2 3 4 5 6 7 8 9 10 11 12 13 14 15 16
000
FTUS43 KICT 311126
TAFICT
TAF
KICT 311126Z 3112/0112 36014KT P6SM BKN025
     FM311600 02017G24KT P6SM SCT030 BKN250
     FM312300 05006KT P6SM SCT250
     FM010300 VRB03KT P6SM SCT250=

USA.gov is the U.S. government's official web portal to all federal, state and local government web resources and services.